createdAt,value
2023-01-29T00:00:48.633Z,82.61
2023-01-29T00:06:13.162Z,82.53
2023-01-29T00:11:20.683Z,82.48
2023-01-29T00:16:24.573Z,82.59
2023-01-29T00:21:27.982Z,82.73
2023-01-29T00:26:30.995Z,82.80
2023-01-29T00:31:34.991Z,82.88
2023-01-29T00:36:38.223Z,82.92
2023-01-29T00:41:59.881Z,82.93
2023-01-29T00:47:03.379Z,82.81
2023-01-29T00:52:24.406Z,82.94
2023-01-29T00:57:30.446Z,83.02
2023-01-29T01:02:52.014Z,83.09
2023-01-29T01:07:58.019Z,83.21
2023-01-29T01:13:06.832Z,83.02
2023-01-29T01:18:10.135Z,82.95
2023-01-29T01:23:13.243Z,83.00
2023-01-29T01:28:16.449Z,83.15
2023-01-29T01:33:20.580Z,83.12
2023-01-29T01:38:23.682Z,83.08
2023-01-29T01:43:26.787Z,83.39
2023-01-29T01:48:29.897Z,83.39
2023-01-29T01:53:39.455Z,83.79
2023-01-29T01:58:50.955Z,83.47
2023-01-29T02:04:24.061Z,84.01
2023-01-29T02:09:36.101Z,83.98
2023-01-29T02:14:41.558Z,84.48
2023-01-29T02:19:50.376Z,84.50
2023-01-29T02:24:59.220Z,85.04
2023-01-29T02:30:31.815Z,85.28
2023-01-29T02:35:47.009Z,85.41
2023-01-29T02:41:12.650Z,85.31
2023-01-29T02:46:21.474Z,85.28
2023-01-29T02:51:37.994Z,85.83
2023-01-29T02:56:52.060Z,86.09
2023-01-29T03:02:01.396Z,86.30
2023-01-29T03:07:10.865Z,86.02
2023-01-29T03:12:34.271Z,86.19
2023-01-29T03:17:44.085Z,86.38
2023-01-29T03:22:53.254Z,86.76
2023-01-29T03:28:20.730Z,87.02
2023-01-29T03:33:26.569Z,87.35
2023-01-29T03:38:32.520Z,87.24
2023-01-29T03:43:46.134Z,87.02
2023-01-29T03:49:10.119Z,87.13
2023-01-29T03:54:29.504Z,87.66
2023-01-29T03:59:58.314Z,87.10
2023-01-29T04:05:12.168Z,86.89
2023-01-29T04:10:21.603Z,87.28
2023-01-29T04:15:29.010Z,87.32
2023-01-29T04:20:33.265Z,87.61
2023-01-29T04:25:46.406Z,87.68
2023-01-29T04:31:09.434Z,87.86
2023-01-29T04:36:38.491Z,88.08
2023-01-29T04:42:23.169Z,88.36
2023-01-29T04:47:36.099Z,88.13
2023-01-29T04:52:50.176Z,87.94
2023-01-29T04:58:05.560Z,88.17
2023-01-29T05:03:11.822Z,88.51
2023-01-29T05:08:19.627Z,88.70
2023-01-29T05:13:24.601Z,88.74
2023-01-29T05:18:29.520Z,88.73
2023-01-29T05:23:32.559Z,88.91
2023-01-29T05:28:35.657Z,89.01
2023-01-29T05:33:38.777Z,89.04
2023-01-29T05:38:41.871Z,88.68
2023-01-29T05:43:45.179Z,88.81
2023-01-29T05:48:48.288Z,89.10
2023-01-29T05:53:51.301Z,89.00
2023-01-29T05:58:54.906Z,88.70
2023-01-29T06:03:57.910Z,88.87
2023-01-29T06:09:01.016Z,88.81
2023-01-29T06:14:04.223Z,88.47
2023-01-29T06:19:07.333Z,88.82
2023-01-29T06:24:10.563Z,88.98
2023-01-29T06:29:13.542Z,88.33
2023-01-29T06:34:16.959Z,88.37
2023-01-29T06:39:20.056Z,88.78
2023-01-29T06:44:23.160Z,88.72
2023-01-29T06:49:26.181Z,88.76
2023-01-29T06:54:29.891Z,88.65
2023-01-29T06:59:33.609Z,88.82
2023-01-29T07:04:38.144Z,88.76
2023-01-29T07:09:43.203Z,88.60
2023-01-29T07:14:46.713Z,88.61
2023-01-29T07:19:50.164Z,88.74
2023-01-29T07:24:53.261Z,88.78
2023-01-29T07:29:56.229Z,88.87
2023-01-29T07:34:59.244Z,88.76
2023-01-29T07:40:02.685Z,88.69
2023-01-29T07:45:08.671Z,88.21
2023-01-29T07:50:12.546Z,87.97
2023-01-29T07:55:16.726Z,88.02
2023-01-29T08:00:20.391Z,88.22
2023-01-29T08:05:23.544Z,88.16
2023-01-29T08:10:27.038Z,87.75
2023-01-29T08:15:30.975Z,87.57
2023-01-29T08:20:34.144Z,87.57
2023-01-29T08:25:37.404Z,87.26
2023-01-29T08:30:40.708Z,87.21
2023-01-29T08:35:50.058Z,87.00
2023-01-29T08:40:53.117Z,86.61
2023-01-29T08:45:57.122Z,86.52
2023-01-29T08:51:03.062Z,86.48
2023-01-29T08:56:07.498Z,86.35
2023-01-29T09:01:12.859Z,86.25
2023-01-29T09:06:16.280Z,86.40
2023-01-29T09:11:19.596Z,86.33
2023-01-29T09:16:22.677Z,85.85
2023-01-29T09:21:25.639Z,85.75
2023-01-29T09:26:28.773Z,85.74
2023-01-29T09:31:32.660Z,85.62
2023-01-29T09:36:35.779Z,85.88
2023-01-29T09:41:45.228Z,85.82
2023-01-29T09:46:53.973Z,85.89
2023-01-29T09:52:05.960Z,85.94
2023-01-29T09:57:15.774Z,85.99
2023-01-29T10:02:19.101Z,85.97
2023-01-29T10:08:00.286Z,85.81
2023-01-29T10:13:08.277Z,85.73
2023-01-29T10:18:30.532Z,85.51
2023-01-29T10:23:36.502Z,85.11
2023-01-29T10:28:50.862Z,84.88
2023-01-29T10:34:04.477Z,85.11
2023-01-29T10:39:17.937Z,85.17
2023-01-29T10:44:29.712Z,85.22
2023-01-29T10:49:48.461Z,85.15
2023-01-29T10:54:58.315Z,85.12
2023-01-29T11:00:18.706Z,85.31
2023-01-29T11:05:38.378Z,85.27
2023-01-29T11:10:49.417Z,85.27
2023-01-29T11:15:53.805Z,85.24
2023-01-29T11:21:03.503Z,85.19
2023-01-29T11:26:11.242Z,85.28
2023-01-29T11:31:39.258Z,85.28
2023-01-29T11:36:43.639Z,85.07
2023-01-29T11:41:55.858Z,85.03
2023-01-29T11:47:21.392Z,85.11
2023-01-29T11:52:34.428Z,84.84
2023-01-29T11:57:43.583Z,84.61
2023-01-29T12:02:53.954Z,84.30
2023-01-29T12:08:02.933Z,84.29
2023-01-29T12:13:06.004Z,84.18
2023-01-29T12:18:09.419Z,84.08
2023-01-29T12:23:23.284Z,84.30
2023-01-29T12:28:37.434Z,84.49
2023-01-29T12:34:16.205Z,84.66
2023-01-29T12:39:20.515Z,84.87
2023-01-29T12:44:43.888Z,84.92
2023-01-29T12:49:56.719Z,84.91
2023-01-29T12:55:08.684Z,84.98
2023-01-29T13:00:34.921Z,84.96
2023-01-29T13:06:01.646Z,85.09
2023-01-29T13:11:20.216Z,85.30
2023-01-29T13:16:29.766Z,85.50
2023-01-29T13:21:44.107Z,85.76
2023-01-29T13:26:49.301Z,85.78
2023-01-29T13:31:55.976Z,85.83
2023-01-29T13:37:03.489Z,85.94
2023-01-29T13:42:19.185Z,86.03
2023-01-29T13:47:38.622Z,85.96
2023-01-29T13:52:46.593Z,86.25
2023-01-29T13:57:55.952Z,86.50
2023-01-29T14:03:10.089Z,86.83
2023-01-29T14:08:16.035Z,86.74
2023-01-29T14:13:24.001Z,87.00
2023-01-29T14:18:30.169Z,87.28
2023-01-29T14:23:42.700Z,87.48
2023-01-29T14:29:16.469Z,87.72
2023-01-29T14:34:28.958Z,87.72
2023-01-29T14:39:37.996Z,87.73
2023-01-29T14:44:46.120Z,88.03
2023-01-29T14:49:49.635Z,88.50
2023-01-29T14:54:55.766Z,87.97
2023-01-29T15:00:06.628Z,88.33
2023-01-29T15:05:21.172Z,88.45
2023-01-29T15:10:47.419Z,88.89
2023-01-29T15:16:07.809Z,88.38
2023-01-29T15:21:14.076Z,88.58
2023-01-29T15:26:26.685Z,88.91
2023-01-29T15:31:32.583Z,88.81
2023-01-29T15:36:37.724Z,88.94
2023-01-29T15:41:41.286Z,89.24
2023-01-29T15:46:50.840Z,89.31
2023-01-29T15:52:00.829Z,89.31
2023-01-29T15:57:04.734Z,89.61
2023-01-29T16:02:36.035Z,89.53
2023-01-29T16:07:40.582Z,89.60
2023-01-29T16:12:44.256Z,89.12
2023-01-29T16:17:48.510Z,89.37
2023-01-29T16:22:53.759Z,89.49
2023-01-29T16:27:59.119Z,89.38
2023-01-29T16:33:05.551Z,89.49
2023-01-29T16:38:28.458Z,89.80
2023-01-29T16:43:42.078Z,89.97
2023-01-29T16:48:46.442Z,89.98
2023-01-29T16:54:18.599Z,89.85
2023-01-29T16:59:41.607Z,89.94
2023-01-29T17:04:47.333Z,90.08
2023-01-29T17:09:55.100Z,90.28
2023-01-29T17:15:01.462Z,90.36
2023-01-29T17:20:16.894Z,90.30
2023-01-29T17:25:22.590Z,90.27
2023-01-29T17:30:30.565Z,90.49
2023-01-29T17:35:36.008Z,90.63
2023-01-29T17:40:51.813Z,90.66
2023-01-29T17:45:55.599Z,90.33
2023-01-29T17:51:03.876Z,90.37
2023-01-29T17:56:08.450Z,89.99
2023-01-29T18:01:12.040Z,90.13
2023-01-29T18:06:34.581Z,89.91
2023-01-29T18:11:40.034Z,90.16
2023-01-29T18:16:44.595Z,90.45
2023-01-29T18:21:48.720Z,90.62
2023-01-29T18:26:52.539Z,90.85
2023-01-29T18:31:56.327Z,90.91
2023-01-29T18:37:00.876Z,90.91
2023-01-29T18:42:04.728Z,90.78
2023-01-29T18:47:07.827Z,91.02
2023-01-29T18:52:12.771Z,91.13
2023-01-29T18:58:28.904Z,91.07
2023-01-29T19:02:43.350Z,91.31
2023-01-29T19:07:48.104Z,91.08
2023-01-29T19:12:53.513Z,90.85
2023-01-29T19:17:57.289Z,90.77
2023-01-29T19:23:01.317Z,90.95
2023-01-29T19:28:07.861Z,91.43
2023-01-29T19:33:11.730Z,91.54
2023-01-29T19:38:19.638Z,91.61
2023-01-29T19:43:23.356Z,91.43
2023-01-29T19:48:27.281Z,91.42
2023-01-29T19:53:31.874Z,91.55
2023-01-29T19:58:36.324Z,91.16
2023-01-29T20:03:39.671Z,90.91
2023-01-29T20:08:48.854Z,90.79
2023-01-29T20:13:52.963Z,91.00
2023-01-29T20:19:14.029Z,90.99
2023-01-29T20:24:19.332Z,91.25
2023-01-29T20:29:22.854Z,90.93
2023-01-29T20:34:26.635Z,91.16
2023-01-29T20:39:31.723Z,91.35
2023-01-29T20:44:35.851Z,90.95
2023-01-29T20:49:39.569Z,90.93
2023-01-29T20:54:43.493Z,90.96
2023-01-29T20:59:47.017Z,91.22
2023-01-29T21:04:50.112Z,91.63
2023-01-29T21:09:54.054Z,91.39
2023-01-29T21:14:57.430Z,91.75
2023-01-29T21:20:01.000Z,91.97
2023-01-29T21:25:06.017Z,92.05
2023-01-29T21:30:11.596Z,92.19
2023-01-29T21:35:16.652Z,92.07
2023-01-29T21:40:22.203Z,92.07
2023-01-29T21:45:25.546Z,92.03
2023-01-29T21:50:30.059Z,92.14
2023-01-29T21:55:34.397Z,92.17
2023-01-29T22:00:38.327Z,92.01
2023-01-29T22:05:41.924Z,91.99
2023-01-29T22:10:45.131Z,91.83
2023-01-29T22:15:48.865Z,91.76
2023-01-29T22:20:55.688Z,91.99
2023-01-29T22:26:06.964Z,91.88
2023-01-29T22:31:10.681Z,91.87
2023-01-29T22:36:13.989Z,91.47
2023-01-29T22:41:17.603Z,91.57
2023-01-29T22:46:21.027Z,91.43
2023-01-29T22:51:24.733Z,91.66
2023-01-29T22:56:30.884Z,91.61
2023-01-29T23:01:34.243Z,91.27
2023-01-29T23:06:37.828Z,91.38
2023-01-29T23:11:40.931Z,91.43
2023-01-29T23:16:44.245Z,91.43
2023-01-29T23:21:47.354Z,91.17
2023-01-29T23:27:09.202Z,91.18
2023-01-29T23:32:15.949Z,91.18
2023-01-29T23:37:19.094Z,91.23
2023-01-29T23:42:22.301Z,91.23
2023-01-29T23:47:25.307Z,91.15
2023-01-29T23:52:28.512Z,90.94
2023-01-29T23:57:31.722Z,90.98
